Time;durP1;ratioP1;P1;durP2;ratioP2;P2;SDS_P1;SDS_P2;PMS_P1;PMS_P2;Temp;Humidity;BMP_temperature;BMP_pressure;BME280_temperature;BME280_humidity;BME280_pressure;Samples;Min_cycle;Max_cycle;Signal;HPM_P1;HPM_P2
2023/07/01 00:00:37;;;;;;;12.05;8.82;;;;;;;19.91;86.60;99638.22;5106129;28;20023;-20
2023/07/01 00:03:09;;;;;;;12.20;8.30;;;;;;;19.72;87.70;99635.50;5106473;28;20027;-18
2023/07/01 00:05:35;;;;;;;11.20;8.23;;;;;;;19.19;90.22;99633.66;5106363;28;20077;-18
2023/07/01 00:08:00;;;;;;;13.57;9.70;;;;;;;19.40;89.54;99625.31;5106478;28;20032;-18
2023/07/01 00:10:28;;;;;;;14.98;9.27;;;;;;;19.52;88.68;99636.53;5106162;28;20460;-18
2023/07/01 00:12:56;;;;;;;13.65;9.57;;;;;;;19.24;89.71;99628.19;5106054;28;20023;-19
2023/07/01 00:15:31;;;;;;;14.02;8.98;;;;;;;18.85;92.25;99636.41;5106006;28;20039;-19
2023/07/01 00:17:56;;;;;;;14.48;8.82;;;;;;;19.09;90.97;99632.97;5106056;28;20580;-18
2023/07/01 00:20:22;;;;;;;13.13;8.45;;;;;;;18.74;92.67;99632.97;5105786;28;20020;-19
2023/07/01 00:22:47;;;;;;;10.52;7.78;;;;;;;18.64;93.07;99630.38;5106067;28;20028;-18
2023/07/01 00:25:15;;;;;;;11.80;8.05;;;;;;;18.45;93.77;99631.06;5105876;28;20020;-18
2023/07/01 00:27:43;;;;;;;12.18;7.88;;;;;;;18.42;94.56;99634.28;5105581;28;20507;-18
2023/07/01 00:30:13;;;;;;;11.73;7.93;;;;;;;18.86;91.76;99638.03;5106092;28;20031;-18
2023/07/01 00:32:41;;;;;;;13.55;8.38;;;;;;;18.98;91.28;99626.84;5105870;28;20016;-18
2023/07/01 00:35:07;;;;;;;;;;;;;;;18.91;92.08;99623.66;5106332;28;20028;-18
2023/07/01 00:37:35;;;;;;;13.73;8.45;;;;;;;18.60;94.60;99624.72;5105138;28;19961;-19
2023/07/01 00:40:04;;;;;;;11.38;8.07;;;;;;;18.57;94.38;99625.28;5087411;28;20124;-19
2023/07/01 00:42:38;;;;;;;14.00;7.57;;;;;;;18.43;94.35;99627.81;5105698;28;20176;-19
2023/07/01 00:45:07;;;;;;;12.68;8.15;;;;;;;18.97;90.73;99617.94;5105650;28;20048;-18
2023/07/01 00:47:32;;;;;;;11.88;8.23;;;;;;;19.20;88.40;99629.84;5105554;28;20063;-18
2023/07/01 00:49:58;;;;;;;10.70;8.23;;;;;;;18.73;90.88;99623.25;5105943;28;20066;-18
2023/07/01 00:52:26;;;;;;;10.68;7.95;;;;;;;18.56;91.59;99623.66;5105434;28;20028;-17
2023/07/01 00:54:54;;;;;;;16.38;8.57;;;;;;;18.77;89.93;99624.28;5105542;28;20027;-18
2023/07/01 00:57:19;;;;;;;13.00;8.25;;;;;;;18.75;90.58;99621.06;5105653;28;20034;-18
2023/07/01 00:59:47;;;;;;;14.18;8.00;;;;;;;18.37;93.94;99623.56;5105702;28;20024;-18
2023/07/01 01:02:23;;;;;;;;;;;;;;;18.89;90.37;99634.75;5106131;28;20080;-20
2023/07/01 01:05:10;;;;;;;10.57;8.50;;;;;;;18.50;94.16;99618.59;5105552;28;19914;-19
2023/07/01 01:08:03;;;;;;;11.98;8.68;;;;;;;19.02;90.01;99626.00;5105461;28;20383;-19
2023/07/01 01:10:35;;;;;;;11.77;8.65;;;;;;;18.80;91.82;99628.38;5101840;28;20536;-22
2023/07/01 01:13:06;;;;;;;12.10;8.65;;;;;;;19.10;89.43;99629.94;5105337;28;20129;-18
2023/07/01 01:15:31;;;;;;;14.95;9.23;;;;;;;18.93;90.45;99632.31;5105465;28;20124;-19
2023/07/01 01:18:04;;;;;;;10.95;8.35;;;;;;;18.43;93.56;99633.22;5105687;28;20516;-19
2023/07/01 01:20:31;;;;;;;13.93;9.05;;;;;;;18.73;92.57;99623.25;5105471;28;20035;-19
2023/07/01 01:23:13;;;;;;;13.63;8.77;;;;;;;18.37;93.93;99615.44;5105446;28;20043;-17
2023/07/01 01:25:57;;;;;;;12.98;8.48;;;;;;;18.92;91.52;99625.28;5105452;28;20266;-18
2023/07/01 01:28:28;;;;;;;11.95;8.95;;;;;;;18.71;92.86;99625.44;5105450;28;20043;-18
2023/07/01 01:30:56;;;;;;;10.35;8.40;;;;;;;18.43;95.49;99621.63;5105584;28;20030;-19
2023/07/01 01:33:21;;;;;;;10.02;8.77;;;;;;;18.67;94.24;99624.38;5105424;28;20144;-18
2023/07/01 01:35:54;;;;;;;11.65;8.73;;;;;;;18.86;90.97;99625.34;5105599;28;20129;-18
2023/07/01 01:38:25;;;;;;;13.57;9.07;;;;;;;18.15;95.56;99612.38;5108868;28;20024;-18
2023/07/01 01:41:00;;;;;;;16.08;9.52;;;;;;;18.33;95.01;99622.50;5109251;28;20020;-20
2023/07/01 01:43:41;;;;;;;13.95;9.82;;;;;;;18.39;94.09;99621.38;5109082;28;20051;-19
2023/07/01 01:46:08;;;;;;;16.67;8.85;;;;;;;18.37;93.38;99620.84;5109017;28;20126;-18
2023/07/01 01:48:35;;;;;;;14.75;8.45;;;;;;;18.53;93.71;99623.41;5108963;28;20036;-19
2023/07/01 01:51:04;;;;;;;12.85;8.25;;;;;;;18.80;91.24;99621.06;5108888;28;20100;-19
2023/07/01 01:53:31;;;;;;;13.65;8.88;;;;;;;18.16;94.92;99617.47;5108411;28;20487;-23
2023/07/01 01:55:57;;;;;;;13.63;9.10;;;;;;;18.28;92.61;99603.63;5108858;28;20038;-21
2023/07/01 01:58:33;;;;;;;;;;;;;;;;;;;;;
2023/07/01 02:00:59;;;;;;;13.88;9.07;;;;;;;18.52;92.86;99627.22;5106518;28;20035;-20
2023/07/01 02:03:25;;;;;;;12.45;8.90;;;;;;;18.54;92.16;99619.66;5108670;28;20019;-20
2023/07/01 02:05:50;;;;;;;15.82;10.23;;;;;;;18.72;90.89;99620.84;5108773;28;20754;-19
2023/07/01 02:08:16;;;;;;;16.70;9.68;;;;;;;18.27;91.66;99629.03;5108510;28;20110;-19
2023/07/01 02:10:48;;;;;;;16.80;9.95;;;;;;;18.13;91.18;99628.03;5108616;28;20059;-17
2023/07/01 02:13:14;;;;;;;15.88;9.07;;;;;;;18.13;91.25;99626.13;5108188;28;20120;-18
2023/07/01 02:15:42;;;;;;;17.13;9.07;;;;;;;17.68;92.73;99620.69;5108534;28;20024;-19
2023/07/01 02:18:07;;;;;;;;;;;;;;;17.29;96.75;99638.63;5108836;28;20084;-19
2023/07/01 02:20:32;;;;;;;15.93;9.45;;;;;;;17.61;96.93;99638.22;5107581;28;19916;-18
2023/07/01 02:22:58;;;;;;;14.85;9.07;;;;;;;18.02;92.86;99641.59;5108515;28;20028;-22
2023/07/01 02:25:26;;;;;;;15.45;9.20;;;;;;;17.77;94.78;99636.28;5108150;28;20126;-18
2023/07/01 02:27:51;;;;;;;11.63;8.23;;;;;;;17.50;98.78;99650.16;5108274;28;20024;-18
2023/07/01 02:30:17;;;;;;;14.20;8.65;;;;;;;18.05;96.71;99651.81;5108051;28;20100;-19
2023/07/01 02:32:45;;;;;;;12.88;8.45;;;;;;;17.63;98.62;99660.34;5108199;28;20415;-18
2023/07/01 02:35:10;;;;;;;14.93;9.52;;;;;;;17.93;98.07;99651.34;5108303;28;20083;-18
2023/07/01 02:37:35;;;;;;;10.95;8.50;;;;;;;17.61;100.00;99652.53;5107849;28;20032;-19
2023/07/01 02:40:04;;;;;;;12.85;8.10;;;;;;;17.90;99.13;99654.59;5107789;28;20032;-23
2023/07/01 02:42:32;;;;;;;14.20;8.95;;;;;;;17.94;99.83;99639.47;5108011;28;20099;-19
2023/07/01 02:45:02;;;;;;;;;;;;;;;17.85;99.51;99641.13;5108403;28;20074;-19
2023/07/01 02:47:28;;;;;;;14.10;9.88;;;;;;;17.93;100.00;99648.63;5107383;28;19915;-18
2023/07/01 02:49:53;;;;;;;14.05;9.88;;;;;;;18.14;99.02;99653.91;5107403;28;20480;-18
2023/07/01 02:52:23;;;;;;;15.45;10.75;;;;;;;18.18;97.80;99644.97;5107358;28;20406;-18
2023/07/01 02:54:49;;;;;;;15.30;10.95;;;;;;;18.18;97.26;99642.28;5107326;28;20030;-19
2023/07/01 02:57:16;;;;;;;15.88;9.75;;;;;;;18.07;98.08;99633.44;5107948;28;20016;-17
2023/07/01 02:59:47;;;;;;;13.40;9.52;;;;;;;17.71;100.00;99643.59;5088949;28;20466;-17
2023/07/01 03:02:12;;;;;;;11.43;8.73;;;;;;;17.92;99.95;99644.34;5107179;28;20036;-18
2023/07/01 03:04:40;;;;;;;13.27;8.90;;;;;;;17.86;99.16;99631.97;5107529;28;20024;-20
2023/07/01 03:07:08;;;;;;;11.20;8.70;;;;;;;17.69;100.00;99643.06;5107190;28;20111;-17
2023/07/01 03:09:36;;;;;;;10.43;8.55;;;;;;;18.00;99.49;99654.56;5107337;28;20061;-18
2023/07/01 03:12:04;;;;;;;11.73;8.80;;;;;;;18.15;98.24;99642.06;5107403;28;20047;-18
2023/07/01 03:14:32;;;;;;;14.50;9.90;;;;;;;18.03;98.69;99643.19;5106316;28;20565;-18
2023/07/01 03:17:01;;;;;;;14.30;10.25;;;;;;;17.74;100.00;99645.75;5107115;28;20031;-19
2023/07/01 03:19:26;;;;;;;12.27;9.23;;;;;;;17.59;100.00;99643.09;5106986;28;20031;-18
2023/07/01 03:21:59;;;;;;;16.88;9.05;;;;;;;17.55;100.00;99642.84;5107097;28;20023;-18
2023/07/01 03:24:33;;;;;;;12.35;8.52;;;;;;;17.53;100.00;99633.41;5107153;28;20027;-20
2023/07/01 03:27:08;;;;;;;12.75;8.48;;;;;;;17.49;100.00;99643.97;5107047;28;20027;-18
2023/07/01 03:29:41;;;;;;;10.65;7.85;;;;;;;17.50;100.00;99640.16;5106931;28;20028;-21
2023/07/01 03:32:10;;;;;;;15.18;7.93;;;;;;;17.51;100.00;99636.41;5106653;28;20202;-18
2023/07/01 03:34:37;;;;;;;19.30;8.15;;;;;;;17.23;100.00;99625.16;5106996;28;20042;-18
2023/07/01 03:37:05;;;;;;;13.52;8.00;;;;;;;17.33;100.00;99626.22;5107107;28;20035;-20
2023/07/01 03:39:31;;;;;;;17.67;8.60;;;;;;;17.27;100.00;99630.81;5107018;28;20789;-18
2023/07/01 03:41:56;;;;;;;14.82;8.65;;;;;;;17.47;100.00;99627.25;5106491;28;20023;-18
2023/07/01 03:44:21;;;;;;;16.60;8.80;;;;;;;17.53;100.00;99631.53;5105359;28;20118;-18
2023/07/01 03:46:47;;;;;;;13.57;8.57;;;;;;;17.66;100.00;99633.63;5106846;28;20031;-18
2023/07/01 03:49:12;;;;;;;13.48;9.35;;;;;;;17.92;100.00;99633.56;5106348;28;20031;-18
2023/07/01 03:51:38;;;;;;;16.98;9.30;;;;;;;18.11;100.00;99638.31;5106499;28;20430;-18
2023/07/01 03:54:03;;;;;;;12.85;9.95;;;;;;;18.31;96.76;99638.19;5106302;28;20027;-18
2023/07/01 03:56:28;;;;;;;11.88;9.88;;;;;;;18.27;98.85;99642.53;5106446;28;20108;-19
2023/07/01 03:58:54;;;;;;;11.90;9.02;;;;;;;18.15;99.72;99652.84;5106103;28;20176;-18
2023/07/01 04:01:23;;;;;;;12.18;9.00;;;;;;;18.31;99.58;99648.13;5106415;28;20039;-18
2023/07/01 04:03:48;;;;;;;12.23;9.05;;;;;;;18.25;100.00;99642.00;5106367;28;20030;-19
2023/07/01 04:06:16;;;;;;;13.52;10.32;;;;;;;18.28;100.00;99636.03;5106165;28;20024;-18
2023/07/01 04:08:44;;;;;;;13.73;10.23;;;;;;;18.48;99.13;99632.38;5106360;28;20051;-18
2023/07/01 04:11:12;;;;;;;15.50;10.63;;;;;;;18.66;98.17;99636.28;5106192;28;20035;-17
2023/07/01 04:13:42;;;;;;;13.27;10.40;;;;;;;18.83;97.31;99636.69;5106191;28;20091;-20
2023/07/01 04:16:11;;;;;;;16.20;10.90;;;;;;;18.90;98.54;99646.38;5105979;28;20487;-18
2023/07/01 04:18:39;;;;;;;18.92;11.15;;;;;;;19.15;96.79;99640.72;5105907;28;20032;-20
2023/07/01 04:21:08;;;;;;;13.07;11.05;;;;;;;19.20;96.11;99643.34;5105840;28;20168;-23
2023/07/01 04:23:34;;;;;;;13.20;11.32;;;;;;;19.57;94.17;99643.78;5106554;28;20032;-18
2023/07/01 04:25:59;;;;;;;13.18;10.68;;;;;;;19.52;94.09;99636.53;5105875;28;20174;-19
2023/07/01 04:28:29;;;;;;;14.70;11.13;;;;;;;19.55;95.35;99630.53;5106056;28;20502;-19
2023/07/01 04:30:55;;;;;;;13.45;11.13;;;;;;;19.58;96.36;99621.84;5089915;28;20034;-18
2023/07/01 04:33:25;;;;;;;15.88;11.25;;;;;;;19.80;94.00;99623.25;5085303;28;20024;-20
2023/07/01 04:35:52;;;;;;;13.65;10.82;;;;;;;19.98;92.46;99627.88;5085673;28;20034;-19
2023/07/01 04:38:20;;;;;;;14.30;11.85;;;;;;;20.12;91.42;99640.66;5085288;28;20505;-19
2023/07/01 04:40:48;;;;;;;15.07;11.35;;;;;;;20.06;90.16;99648.03;5085768;28;20036;-18
2023/07/01 04:43:13;;;;;;;13.45;11.43;;;;;;;20.09;91.15;99643.97;5085180;28;20067;-20
2023/07/01 04:45:41;;;;;;;12.20;10.90;;;;;;;20.14;91.07;99650.09;5085667;28;20498;-20
2023/07/01 04:48:06;;;;;;;13.75;11.05;;;;;;;20.11;93.11;99656.09;5085363;28;20453;-20
2023/07/01 04:50:34;;;;;;;13.63;11.38;;;;;;;20.26;91.72;99650.44;5085439;28;20502;-18
2023/07/01 04:53:00;;;;;;;12.80;9.35;;;;;;;20.34;87.29;99654.41;5085269;28;20055;-19
2023/07/01 04:55:25;;;;;;;10.82;8.90;;;;;;;20.57;81.24;99657.31;5085401;28;20097;-19
2023/07/01 04:57:53;;;;;;;11.13;9.25;;;;;;;20.62;82.52;99659.97;5085271;28;20039;-18
2023/07/01 05:00:18;;;;;;;12.40;9.63;;;;;;;21.01;81.51;99661.50;5085001;28;20411;-20
2023/07/01 05:02:48;;;;;;;11.30;10.07;;;;;;;20.78;83.24;99658.63;5085197;28;20495;-20
2023/07/01 05:05:14;;;;;;;11.73;10.30;;;;;;;21.19;80.26;99673.38;5085431;28;20073;-21
2023/07/01 05:07:39;;;;;;;11.50;10.30;;;;;;;21.02;81.92;99666.63;5085123;28;20028;-19
2023/07/01 05:10:05;;;;;;;13.63;10.95;;;;;;;21.20;82.40;99674.97;5085239;28;20028;-19
2023/07/01 05:12:31;;;;;;;13.00;11.13;;;;;;;21.24;80.19;99665.13;5088313;28;20016;-19
2023/07/01 05:14:58;;;;;;;15.00;13.40;;;;;;;21.41;81.48;99672.69;5089052;28;20031;-19
2023/07/01 05:17:26;;;;;;;17.45;14.40;;;;;;;21.47;83.12;99674.22;5089174;28;20036;-19
2023/07/01 05:19:54;;;;;;;21.70;19.25;;;;;;;21.75;82.23;99671.50;5089009;28;20039;-20
2023/07/01 05:22:20;;;;;;;;;;;;;;;21.77;83.74;99669.31;5089387;28;20435;-18
2023/07/01 05:24:45;;;;;;;15.93;13.57;;;;;;;21.63;83.04;99653.81;5089179;28;19930;-18
2023/07/01 05:27:11;;;;;;;14.50;13.00;;;;;;;21.54;83.60;99658.34;5087385;28;20028;-19
2023/07/01 05:29:39;;;;;;;20.65;17.60;;;;;;;21.74;80.76;99659.88;5089180;28;20012;-20
2023/07/01 05:32:07;;;;;;;;;;;;;;;21.66;81.67;99666.81;5089509;28;20020;-19
2023/07/01 05:34:32;;;;;;;14.98;13.38;;;;;;;21.72;83.73;99662.06;5088803;28;19918;-20
2023/07/01 05:36:58;;;;;;;14.57;12.35;;;;;;;21.72;80.89;99664.78;5088351;28;20024;-19
2023/07/01 05:39:23;;;;;;;14.07;12.57;;;;;;;22.30;77.61;99665.22;5088904;28;20107;-19
2023/07/01 05:41:57;;;;;;;15.05;12.95;;;;;;;22.15;79.40;99661.69;5088344;28;20056;-19
2023/07/01 05:44:24;;;;;;;12.55;11.25;;;;;;;22.28;76.81;99668.22;5088531;28;20051;-19
2023/07/01 05:46:50;;;;;;;;;;;;;;;22.20;78.08;99666.22;5088917;28;20035;-19
2023/07/01 05:49:18;;;;;;;12.05;9.85;;;;;;;22.46;73.42;99664.53;5088803;28;19912;-20
2023/07/01 05:51:47;;;;;;;12.07;9.45;;;;;;;22.45;73.96;99662.94;5088461;28;20733;-19
2023/07/01 05:54:15;;;;;;;11.88;9.35;;;;;;;22.65;71.52;99666.28;5088337;28;20057;-19
2023/07/01 05:56:40;;;;;;;13.07;10.10;;;;;;;22.80;74.15;99652.31;5088269;28;20031;-20
2023/07/01 05:59:08;;;;;;;11.15;9.18;;;;;;;22.94;71.57;99657.66;5088619;28;20028;-19
2023/07/01 06:01:33;;;;;;;11.77;8.90;;;;;;;23.04;71.41;99662.06;5088528;28;20026;-20
2023/07/01 06:04:04;;;;;;;10.93;8.73;;;;;;;23.17;65.90;99669.34;5088379;28;20028;-19
2023/07/01 06:06:32;;;;;;;11.80;8.63;;;;;;;23.20;69.22;99663.25;5088064;28;20035;-19
2023/07/01 06:09:01;;;;;;;12.27;8.57;;;;;;;23.46;67.00;99676.97;5087834;28;20036;-21
2023/07/01 06:11:27;;;;;;;9.88;8.15;;;;;;;23.58;67.84;99665.50;5088160;28;20024;-20
2023/07/01 06:13:55;;;;;;;9.50;7.70;;;;;;;23.36;66.25;99665.59;5087657;28;20031;-19
2023/07/01 06:16:20;;;;;;;;;;;;;;;23.60;66.38;99666.00;5088683;28;20016;-19
2023/07/01 06:18:45;;;;;;;10.52;8.00;;;;;;;23.61;64.58;99667.56;5087866;28;19981;-22
2023/07/01 06:21:11;;;;;;;9.93;7.25;;;;;;;23.53;64.30;99668.34;5087867;28;20118;-19
2023/07/01 06:23:37;;;;;;;9.85;7.30;;;;;;;23.54;62.65;99661.81;5103272;28;20059;-19
2023/07/01 06:26:06;;;;;;;9.07;6.82;;;;;;;23.86;64.74;99665.25;5108239;28;20061;-19
2023/07/01 06:28:31;;;;;;;10.38;7.22;;;;;;;24.14;63.36;99673.16;5108081;28;20497;-19
2023/07/01 06:31:00;;;;;;;7.20;6.30;;;;;;;24.17;60.86;99667.06;5107909;28;20027;-19
2023/07/01 06:33:30;;;;;;;10.15;6.25;;;;;;;24.19;60.77;99676.53;5107957;28;20031;-19
2023/07/01 06:35:56;;;;;;;7.95;6.15;;;;;;;24.31;58.57;99678.63;5108183;28;20031;-19
2023/07/01 06:38:21;;;;;;;8.38;6.47;;;;;;;24.42;60.92;99674.47;5108048;28;20088;-19
2023/07/01 06:40:46;;;;;;;9.45;6.30;;;;;;;24.47;61.25;99682.47;5107227;28;20036;-19
2023/07/01 06:43:12;;;;;;;7.85;6.03;;;;;;;24.60;58.97;99685.38;5103040;28;20442;-19
2023/07/01 06:45:43;;;;;;;7.35;6.50;;;;;;;24.34;58.23;99688.88;5107662;28;20026;-22
2023/07/01 06:48:11;;;;;;;8.02;7.10;;;;;;;24.55;60.06;99683.63;5106432;28;20030;-19
2023/07/01 06:50:39;;;;;;;9.30;6.95;;;;;;;24.57;58.18;99684.09;5107269;28;20072;-20
2023/07/01 06:53:04;;;;;;;8.88;7.00;;;;;;;24.74;60.04;99679.75;5107008;28;20036;-19
2023/07/01 06:55:32;;;;;;;8.02;7.00;;;;;;;24.75;59.64;99676.72;5107588;28;20032;-20
2023/07/01 06:58:02;;;;;;;8.10;7.30;;;;;;;24.91;58.09;99679.72;5106110;28;20028;-19
2023/07/01 07:00:29;;;;;;;8.15;7.03;;;;;;;25.29;59.08;99679.00;5107188;28;20036;-18
2023/07/01 07:02:57;;;;;;;8.88;7.55;;;;;;;25.25;59.61;99673.41;5107391;28;20020;-20
2023/07/01 07:05:23;;;;;;;7.78;6.97;;;;;;;25.42;55.36;99667.06;5107254;28;20114;-19
2023/07/01 07:07:51;;;;;;;9.55;7.55;;;;;;;25.33;54.80;99666.28;5107308;28;20099;-19
2023/07/01 07:10:16;;;;;;;;;;;;;;;25.24;56.62;99660.09;5107827;28;20035;-19
2023/07/01 07:12:51;;;;;;;9.50;7.63;;;;;;;25.29;57.09;99659.09;5107354;28;19916;-20
2023/07/01 07:15:19;;;;;;;9.00;6.72;;;;;;;25.58;55.31;99661.03;5107172;28;20399;-19
2023/07/01 07:17:44;;;;;;;7.68;6.70;;;;;;;25.56;54.50;99644.19;5106935;28;20084;-19
2023/07/01 07:20:10;;;;;;;12.18;7.18;;;;;;;25.60;57.58;99656.88;5107214;28;20028;-23
2023/07/01 07:22:38;;;;;;;9.43;6.70;;;;;;;25.97;55.59;99654.44;5107272;28;20034;-19
2023/07/01 07:25:07;;;;;;;10.10;7.57;;;;;;;26.07;55.05;99658.66;5106955;28;20049;-19
2023/07/01 07:27:32;;;;;;;9.65;7.03;;;;;;;25.83;54.99;99664.78;5107068;28;20122;-19
2023/07/01 07:30:16;;;;;;;8.27;6.45;;;;;;;26.31;55.79;99660.75;5106658;28;20028;-19
2023/07/01 07:32:44;;;;;;;8.32;6.38;;;;;;;26.15;54.10;99662.47;5106661;28;20403;-19
2023/07/01 07:35:10;;;;;;;9.55;6.45;;;;;;;26.52;52.55;99654.44;5106127;28;20038;-20
2023/07/01 07:37:52;;;;;;;;;;;;;;;;;;;;;
2023/07/01 07:40:20;;;;;;;9.25;6.75;;;;;;;26.77;50.99;99653.44;5104699;28;20049;-19
2023/07/01 07:42:46;;;;;;;;;;;;;;;26.83;52.42;99656.78;5105835;28;20036;-18
2023/07/01 07:45:12;;;;;;;9.73;6.70;;;;;;;26.91;52.65;99641.38;5106490;28;19912;-19
2023/07/01 07:47:38;;;;;;;9.68;6.60;;;;;;;26.99;52.66;99648.69;5106714;28;20035;-19
2023/07/01 07:50:04;;;;;;;9.32;6.88;;;;;;;26.97;54.58;99646.31;5106315;28;20410;-19
2023/07/01 07:52:29;;;;;;;8.48;7.30;;;;;;;27.12;52.30;99635.84;5106593;28;20101;-19
2023/07/01 07:54:57;;;;;;;8.82;7.03;;;;;;;27.32;51.25;99634.16;5106172;28;20031;-19
2023/07/01 07:57:22;;;;;;;9.70;5.95;;;;;;;27.45;51.70;99641.25;5106203;28;20031;-20
2023/07/01 07:59:52;;;;;;;9.65;6.22;;;;;;;27.49;51.97;99628.47;5106314;28;20024;-19
2023/07/01 08:02:17;;;;;;;8.75;6.03;;;;;;;27.45;50.04;99633.81;5106480;28;20089;-21
2023/07/01 08:04:42;;;;;;;8.48;5.53;;;;;;;27.35;49.12;99637.03;5105984;28;20414;-19
2023/07/01 08:07:08;;;;;;;7.28;5.82;;;;;;;27.51;52.05;99637.13;5106206;28;20031;-19
2023/07/01 08:09:34;;;;;;;7.35;5.75;;;;;;;27.70;47.32;99641.22;5106181;28;20028;-19
2023/07/01 08:12:00;;;;;;;7.63;5.45;;;;;;;27.58;48.07;99634.63;5106098;28;20111;-20
2023/07/01 08:14:30;;;;;;;7.25;4.80;;;;;;;27.74;45.26;99639.41;5105864;28;20479;-20
2023/07/01 08:16:59;;;;;;;6.57;5.88;;;;;;;27.79;49.98;99634.47;5105853;28;20083;-19
2023/07/01 08:19:25;;;;;;;9.18;7.85;;;;;;;28.27;49.12;99633.94;5106196;28;20403;-19
2023/07/01 08:21:51;;;;;;;7.40;5.68;;;;;;;28.54;45.89;99638.63;5106115;28;20045;-19
2023/07/01 08:24:21;;;;;;;6.68;5.72;;;;;;;28.66;46.64;99640.53;5105898;28;20031;-20
2023/07/01 08:26:47;;;;;;;7.45;4.85;;;;;;;28.79;42.92;99644.00;5106287;28;20509;-19
2023/07/01 08:29:12;;;;;;;6.93;5.50;;;;;;;28.61;45.08;99638.03;5105106;28;20047;-19
2023/07/01 08:31:40;;;;;;;8.57;5.57;;;;;;;28.77;46.06;99629.81;5105017;28;20031;-20
2023/07/01 08:34:06;;;;;;;7.20;5.75;;;;;;;28.77;46.94;99614.19;5104776;28;20035;-19
2023/07/01 08:36:31;;;;;;;9.02;6.13;;;;;;;29.01;45.69;99613.22;5105688;28;20020;-19
2023/07/01 08:38:59;;;;;;;6.82;5.88;;;;;;;28.90;44.58;99612.16;5104870;28;20032;-19
2023/07/01 08:41:27;;;;;;;8.68;6.65;;;;;;;29.31;44.92;99601.78;5105931;28;20491;-19
2023/07/01 08:43:53;;;;;;;7.15;5.47;;;;;;;29.38;43.62;99593.72;5104314;28;20851;-19
2023/07/01 08:46:23;;;;;;;6.38;5.38;;;;;;;29.54;46.08;99593.69;5108676;28;20022;-20
2023/07/01 08:48:56;;;;;;;6.63;5.28;;;;;;;29.59;44.95;99598.91;5109937;28;20081;-18
2023/07/01 08:51:29;;;;;;;7.47;5.40;;;;;;;29.67;42.79;99605.38;5110232;28;20028;-19
2023/07/01 08:53:59;;;;;;;6.80;5.13;;;;;;;29.68;44.17;99589.66;5109905;28;20032;-20
2023/07/01 08:56:25;;;;;;;7.82;6.07;;;;;;;29.64;44.93;99598.63;5110194;28;20054;-19
2023/07/01 08:58:51;;;;;;;8.27;5.90;;;;;;;29.93;42.57;99607.50;5109874;28;20030;-19
2023/07/01 09:01:20;;;;;;;7.78;5.50;;;;;;;30.28;43.90;99601.16;5109959;28;20031;-19
2023/07/01 09:03:57;;;;;;;;;;;;;;;;;;;;;
2023/07/01 09:06:24;;;;;;;7.78;5.40;;;;;;;30.40;45.58;99587.28;5107642;28;20047;-20
2023/07/01 09:08:59;;;;;;;6.30;5.22;;;;;;;30.52;41.85;99591.00;5109731;28;20029;-18
2023/07/01 09:11:27;;;;;;;8.98;5.68;;;;;;;30.42;43.11;99584.16;5109679;28;20104;-19
2023/07/01 09:13:56;;;;;;;7.55;5.57;;;;;;;30.49;42.73;99586.25;5109530;28;20024;-19
2023/07/01 09:16:36;;;;;;;9.00;6.22;;;;;;;30.86;41.26;99575.50;5109596;28;20180;-20
2023/07/01 09:19:16;;;;;;;6.30;5.05;;;;;;;30.66;41.67;99565.72;5109822;28;20058;-20
2023/07/01 09:21:43;;;;;;;8.57;5.47;;;;;;;30.56;40.88;99578.91;5109910;28;20024;-22
2023/07/01 09:24:12;;;;;;;6.60;5.35;;;;;;;30.52;41.52;99577.25;5109544;28;20026;-19
2023/07/01 09:26:40;;;;;;;7.22;5.50;;;;;;;30.10;42.38;99572.50;5109576;28;20499;-19
2023/07/01 09:29:18;;;;;;;6.82;5.55;;;;;;;30.22;42.92;99564.13;5109129;28;20031;-19
2023/07/01 09:31:52;;;;;;;9.00;5.60;;;;;;;30.44;42.53;99560.63;5109406;27;20073;-20
2023/07/01 09:34:18;;;;;;;6.50;5.32;;;;;;;30.57;41.44;99558.50;5109149;28;20084;-20
2023/07/01 09:36:43;;;;;;;6.13;5.25;;;;;;;30.79;41.33;99551.41;5109404;28;20036;-19
2023/07/01 09:39:09;;;;;;;6.50;5.00;;;;;;;30.84;39.24;99553.84;5109040;28;20023;-19
2023/07/01 09:41:59;;;;;;;8.48;5.40;;;;;;;30.71;39.47;99548.88;5109101;28;20023;-20
2023/07/01 09:44:27;;;;;;;8.32;5.78;;;;;;;30.63;41.53;99545.22;5108583;28;20184;-18
2023/07/01 09:46:52;;;;;;;7.15;5.30;;;;;;;30.73;43.02;99544.63;5108766;28;20024;-19
2023/07/01 09:49:18;;;;;;;5.53;4.93;;;;;;;30.96;40.00;99555.63;5108905;28;20043;-19
2023/07/01 09:51:59;;;;;;;6.72;5.03;;;;;;;31.12;40.04;99536.22;5109261;28;20036;-20
2023/07/01 09:54:29;;;;;;;6.95;5.35;;;;;;;31.39;40.75;99541.72;5108786;28;20053;-19
2023/07/01 09:57:06;;;;;;;9.82;5.32;;;;;;;31.84;38.42;99539.97;5108322;28;20578;-21
2023/07/01 09:59:33;;;;;;;7.03;5.90;;;;;;;31.98;40.06;99537.38;5109033;28;20072;-19
2023/07/01 10:02:01;;;;;;;9.73;6.20;;;;;;;32.09;41.83;99539.50;5108669;28;20028;-19
2023/07/01 10:04:30;;;;;;;8.57;5.90;;;;;;;32.00;37.77;99521.28;5108672;28;20537;-19
2023/07/01 10:06:58;;;;;;;7.72;5.03;;;;;;;32.10;39.43;99535.53;5108620;28;20479;-19
2023/07/01 10:09:29;;;;;;;6.57;5.30;;;;;;;32.05;38.07;99519.34;5107924;27;20034;-21
2023/07/01 10:12:00;;;;;;;6.20;5.30;;;;;;;32.09;37.06;99529.25;5108952;28;20050;-19
2023/07/01 10:14:29;;;;;;;8.30;5.25;;;;;;;32.12;36.55;99528.50;5108488;28;20103;-23
2023/07/01 10:16:55;;;;;;;6.50;5.10;;;;;;;32.30;36.45;99523.16;5108404;28;20421;-19
2023/07/01 10:19:43;;;;;;;6.25;4.65;;;;;;;32.33;35.43;99527.13;5108726;28;20057;-19
2023/07/01 10:22:22;;;;;;;7.43;4.88;;;;;;;32.50;34.45;99517.44;5108456;28;20088;-20
2023/07/01 10:25:06;;;;;;;5.60;4.32;;;;;;;32.60;34.68;99505.72;5108241;28;20023;-19
2023/07/01 10:27:41;;;;;;;5.90;4.50;;;;;;;33.05;36.44;99497.38;5108200;27;20031;-19
2023/07/01 10:30:16;;;;;;;6.30;5.13;;;;;;;32.86;32.76;99503.97;5106624;28;20039;-19
2023/07/01 10:32:43;;;;;;;5.75;4.50;;;;;;;33.33;32.08;99494.81;5108416;28;20031;-19
2023/07/01 10:35:11;;;;;;;5.22;4.10;;;;;;;33.47;30.03;99488.56;5108063;28;20118;-17
2023/07/01 10:37:37;;;;;;;5.70;4.30;;;;;;;33.58;31.35;99494.91;5108246;27;20090;-19
2023/07/01 10:40:23;;;;;;;4.75;3.67;;;;;;;33.44;31.15;99483.78;5107900;28;20473;-19
2023/07/01 10:42:48;;;;;;;6.50;3.97;;;;;;;33.75;31.06;99481.56;5107891;28;20039;-20
2023/07/01 10:45:14;;;;;;;5.25;3.67;;;;;;;33.47;29.86;99479.44;5107731;28;20058;-22
2023/07/01 10:48:04;;;;;;;4.05;3.30;;;;;;;32.93;27.94;99484.66;5108418;28;20019;-19
2023/07/01 10:50:30;;;;;;;4.35;3.10;;;;;;;33.38;26.90;99477.06;5107583;28;20145;-19
2023/07/01 10:52:55;;;;;;;5.57;3.10;;;;;;;33.94;28.36;99472.94;5107830;28;20036;-19
2023/07/01 10:55:33;;;;;;;5.93;3.97;;;;;;;33.74;27.75;99464.19;5107581;27;20364;-20
2023/07/01 10:58:45;;;;;;;5.07;3.47;;;;;;;34.37;27.08;99463.94;5107541;28;20031;-20
2023/07/01 11:01:43;;;;;;;4.10;3.13;;;;;;;34.04;24.21;99463.06;5107568;28;20022;-19
2023/07/01 11:04:09;;;;;;;4.00;3.13;;;;;;;34.29;25.45;99449.31;5107907;28;20336;-20
2023/07/01 11:06:48;;;;;;;4.55;3.22;;;;;;;34.75;26.09;99442.94;5107534;28;20561;-19
2023/07/01 11:09:36;;;;;;;5.28;3.20;;;;;;;34.71;27.64;99424.78;5106369;28;20593;-22
2023/07/01 11:12:04;;;;;;;4.80;3.30;;;;;;;34.87;26.53;99424.34;5107421;27;20061;-20
2023/07/01 11:14:39;;;;;;;4.80;3.35;;;;;;;34.68;27.26;99420.81;5107069;28;20027;-19
2023/07/01 11:17:18;;;;;;;4.93;3.50;;;;;;;34.89;26.87;99408.13;5107265;28;20032;-19
2023/07/01 11:19:58;;;;;;;5.43;3.42;;;;;;;34.74;27.56;99401.84;5107336;28;20034;-23
2023/07/01 11:22:24;;;;;;;5.25;3.60;;;;;;;35.27;27.82;99422.25;5107202;28;20027;-20
2023/07/01 11:24:53;;;;;;;5.13;3.80;;;;;;;34.75;27.66;99420.78;5107048;28;20030;-19
2023/07/01 11:27:21;;;;;;;5.22;3.72;;;;;;;34.55;26.59;99405.78;5107143;28;20065;-19
2023/07/01 11:29:48;;;;;;;7.43;3.65;;;;;;;34.48;28.21;99411.34;5107262;28;20034;-20
2023/07/01 11:32:14;;;;;;;6.35;3.78;;;;;;;34.58;26.50;99405.00;5106910;28;20039;-22
2023/07/01 11:34:42;;;;;;;5.72;3.60;;;;;;;34.71;26.53;99397.88;5107150;28;20160;-19
2023/07/01 11:37:08;;;;;;;5.95;3.60;;;;;;;34.86;27.38;99386.75;5106710;28;20088;-19
2023/07/01 11:39:43;;;;;;;5.45;3.60;;;;;;;35.18;26.95;99393.00;5105442;28;20809;-19
2023/07/01 11:42:11;;;;;;;5.38;3.40;;;;;;;35.07;26.08;99381.16;5106695;28;20031;-20